sensor_id;sensor_type;location;lat;lon;timestamp;P1;durP1;ratioP1;P2;durP2;ratioP2
56519;SDS011;42420;53.586;10.052;2024-02-26T07:21:59;17.52;;;10.02;;
56519;SDS011;42420;53.586;10.052;2024-02-26T07:26:57;15.20;;;9.48;;
56519;SDS011;42420;53.586;10.052;2024-02-26T07:31:55;16.58;;;9.80;;
56519;SDS011;42420;53.586;10.052;2024-02-26T07:37:07;13.75;;;8.88;;
56519;SDS011;42420;53.586;10.052;2024-02-26T07:42:41;15.32;;;9.80;;
56519;SDS011;42420;53.586;10.052;2024-02-26T07:48:08;14.75;;;9.38;;
56519;SDS011;42420;53.586;10.052;2024-02-26T07:53:07;14.23;;;9.07;;
56519;SDS011;42420;53.586;10.052;2024-02-26T08:04:17;13.13;;;8.90;;
56519;SDS011;42420;53.586;10.052;2024-02-26T08:09:14;13.68;;;8.60;;
56519;SDS011;42420;53.586;10.052;2024-02-26T08:14:13;13.05;;;8.57;;
56519;SDS011;42420;53.586;10.052;2024-02-26T08:19:16;11.82;;;7.60;;
56519;SDS011;42420;53.586;10.052;2024-02-26T08:24:14;12.75;;;8.52;;
56519;SDS011;42420;53.586;10.052;2024-02-26T08:34:08;13.80;;;9.18;;
56519;SDS011;42420;53.586;10.052;2024-02-26T08:39:06;13.00;;;8.52;;
56519;SDS011;42420;53.586;10.052;2024-02-26T08:44:05;14.35;;;9.20;;
56519;SDS011;42420;53.586;10.052;2024-02-26T08:54:00;11.85;;;7.53;;
56519;SDS011;42420;53.586;10.052;2024-02-26T08:58:58;13.85;;;8.52;;
56519;SDS011;42420;53.586;10.052;2024-02-26T09:04:03;12.82;;;8.32;;
56519;SDS011;42420;53.586;10.052;2024-02-26T09:09:04;11.98;;;8.05;;
56519;SDS011;42420;53.586;10.052;2024-02-26T09:14:02;13.77;;;8.48;;
56519;SDS011;42420;53.586;10.052;2024-02-26T09:19:02;13.07;;;7.82;;
56519;SDS011;42420;53.586;10.052;2024-02-26T09:24:06;12.13;;;7.85;;
56519;SDS011;42420;53.586;10.052;2024-02-26T09:29:24;11.88;;;7.68;;
56519;SDS011;42420;53.586;10.052;2024-02-26T09:34:28;13.65;;;7.85;;
56519;SDS011;42420;53.586;10.052;2024-02-26T09:39:37;12.85;;;7.97;;
56519;SDS011;42420;53.586;10.052;2024-02-26T09:44:39;12.10;;;8.68;;
56519;SDS011;42420;53.586;10.052;2024-02-26T09:49:45;13.68;;;8.38;;
56519;SDS011;42420;53.586;10.052;2024-02-26T09:54:57;13.30;;;8.02;;
56519;SDS011;42420;53.586;10.052;2024-02-26T10:00:21;15.35;;;9.68;;
56519;SDS011;42420;53.586;10.052;2024-02-26T10:05:31;16.42;;;10.02;;
56519;SDS011;42420;53.586;10.052;2024-02-26T10:11:07;15.02;;;9.32;;
56519;SDS011;42420;53.586;10.052;2024-02-26T10:16:31;17.17;;;10.13;;
56519;SDS011;42420;53.586;10.052;2024-02-26T10:21:57;16.40;;;9.65;;
56519;SDS011;42420;53.586;10.052;2024-02-26T10:27:15;17.38;;;10.73;;
56519;SDS011;42420;53.586;10.052;2024-02-26T10:32:19;20.65;;;11.32;;
56519;SDS011;42420;53.586;10.052;2024-02-26T10:37:24;18.70;;;10.70;;
56519;SDS011;42420;53.586;10.052;2024-02-26T10:42:57;17.80;;;10.98;;
56519;SDS011;42420;53.586;10.052;2024-02-26T10:48:28;17.05;;;9.80;;
56519;SDS011;42420;53.586;10.052;2024-02-26T10:53:44;18.25;;;11.07;;
56519;SDS011;42420;53.586;10.052;2024-02-26T10:59:07;17.25;;;10.57;;
56519;SDS011;42420;53.586;10.052;2024-02-26T11:04:39;16.40;;;10.32;;
56519;SDS011;42420;53.586;10.052;2024-02-26T11:09:56;16.20;;;9.57;;
56519;SDS011;42420;53.586;10.052;2024-02-26T11:15:21;15.32;;;9.45;;
56519;SDS011;42420;53.586;10.052;2024-02-26T11:20:42;15.00;;;9.68;;
56519;SDS011;42420;53.586;10.052;2024-02-26T11:32:06;14.38;;;8.70;;
56519;SDS011;42420;53.586;10.052;2024-02-26T11:37:31;15.38;;;9.85;;
56519;SDS011;42420;53.586;10.052;2024-02-26T11:42:45;16.33;;;9.60;;
56519;SDS011;42420;53.586;10.052;2024-02-26T11:48:00;15.25;;;9.25;;
56519;SDS011;42420;53.586;10.052;2024-02-26T11:53:38;15.07;;;9.80;;
56519;SDS011;42420;53.586;10.052;2024-02-26T11:59:14;14.27;;;9.23;;
56519;SDS011;42420;53.586;10.052;2024-02-26T12:04:41;15.13;;;8.88;;
56519;SDS011;42420;53.586;10.052;2024-02-26T12:10:12;13.45;;;9.18;;
56519;SDS011;42420;53.586;10.052;2024-02-26T12:16:08;14.35;;;8.70;;
56519;SDS011;42420;53.586;10.052;2024-02-26T12:22:15;16.38;;;9.38;;
56519;SDS011;42420;53.586;10.052;2024-02-26T12:27:33;13.55;;;8.55;;
56519;SDS011;42420;53.586;10.052;2024-02-26T12:32:55;15.95;;;10.27;;
56519;SDS011;42420;53.586;10.052;2024-02-26T12:38:20;16.58;;;9.15;;
56519;SDS011;42420;53.586;10.052;2024-02-26T12:43:53;13.75;;;9.38;;
56519;SDS011;42420;53.586;10.052;2024-02-26T12:49:14;14.80;;;9.57;;
56519;SDS011;42420;53.586;10.052;2024-02-26T12:54:19;12.63;;;8.48;;
56519;SDS011;42420;53.586;10.052;2024-02-26T12:59:40;14.30;;;9.00;;
56519;SDS011;42420;53.586;10.052;2024-02-26T13:04:59;13.25;;;7.75;;
56519;SDS011;42420;53.586;10.052;2024-02-26T13:10:07;11.68;;;7.90;;
56519;SDS011;42420;53.586;10.052;2024-02-26T13:15:07;12.65;;;8.18;;
56519;SDS011;42420;53.586;10.052;2024-02-26T13:26:21;12.48;;;8.15;;
56519;SDS011;42420;53.586;10.052;2024-02-26T13:31:39;13.90;;;8.05;;
56519;SDS011;42420;53.586;10.052;2024-02-26T13:37:16;13.23;;;7.60;;
56519;SDS011;42420;53.586;10.052;2024-02-26T13:42:35;13.13;;;7.68;;
56519;SDS011;42420;53.586;10.052;2024-02-26T13:48:16;14.07;;;8.35;;
56519;SDS011;42420;53.586;10.052;2024-02-26T13:53:16;15.73;;;8.23;;
56519;SDS011;42420;53.586;10.052;2024-02-26T13:58:40;13.57;;;8.65;;
56519;SDS011;42420;53.586;10.052;2024-02-26T14:03:53;14.23;;;8.25;;
56519;SDS011;42420;53.586;10.052;2024-02-26T14:09:05;14.65;;;8.57;;
56519;SDS011;42420;53.586;10.052;2024-02-26T14:21:01;13.75;;;8.82;;
56519;SDS011;42420;53.586;10.052;2024-02-26T14:32:34;14.38;;;8.98;;
56519;SDS011;42420;53.586;10.052;2024-02-26T14:37:39;14.32;;;9.80;;
56519;SDS011;42420;53.586;10.052;2024-02-26T14:43:21;14.65;;;8.73;;
56519;SDS011;42420;53.586;10.052;2024-02-26T14:48:50;13.20;;;8.68;;
56519;SDS011;42420;53.586;10.052;2024-02-26T14:59:49;14.60;;;8.48;;
56519;SDS011;42420;53.586;10.052;2024-02-26T15:05:42;11.82;;;7.88;;
56519;SDS011;42420;53.586;10.052;2024-02-26T15:11:12;12.45;;;8.23;;
56519;SDS011;42420;53.586;10.052;2024-02-26T15:16:37;13.43;;;8.70;;
56519;SDS011;42420;53.586;10.052;2024-02-26T15:21:46;12.88;;;8.27;;
56519;SDS011;42420;53.586;10.052;2024-02-26T15:27:29;11.63;;;8.82;;
56519;SDS011;42420;53.586;10.052;2024-02-26T15:32:58;12.50;;;8.02;;
56519;SDS011;42420;53.586;10.052;2024-02-26T15:38:19;11.20;;;7.20;;
56519;SDS011;42420;53.586;10.052;2024-02-26T15:43:33;12.77;;;8.63;;
56519;SDS011;42420;53.586;10.052;2024-02-26T15:48:58;13.07;;;8.48;;
56519;SDS011;42420;53.586;10.052;2024-02-26T15:54:28;11.30;;;7.82;;
56519;SDS011;42420;53.586;10.052;2024-02-26T16:00:12;11.75;;;8.30;;
56519;SDS011;42420;53.586;10.052;2024-02-26T16:06:01;12.00;;;8.13;;
56519;SDS011;42420;53.586;10.052;2024-02-26T16:11:30;12.98;;;8.10;;
56519;SDS011;42420;53.586;10.052;2024-02-26T16:16:37;11.13;;;7.60;;
56519;SDS011;42420;53.586;10.052;2024-02-26T16:22:22;9.93;;;7.07;;
56519;SDS011;42420;53.586;10.052;2024-02-26T16:28:00;9.73;;;6.97;;
56519;SDS011;42420;53.586;10.052;2024-02-26T16:33:35;11.60;;;7.38;;
56519;SDS011;42420;53.586;10.052;2024-02-26T16:39:57;10.88;;;7.47;;
56519;SDS011;42420;53.586;10.052;2024-02-26T16:45:15;12.30;;;8.43;;
56519;SDS011;42420;53.586;10.052;2024-02-26T16:50:46;11.02;;;7.55;;
56519;SDS011;42420;53.586;10.052;2024-02-26T16:56:47;11.32;;;7.75;;
56519;SDS011;42420;53.586;10.052;2024-02-26T17:02:25;11.50;;;7.88;;
56519;SDS011;42420;53.586;10.052;2024-02-26T17:13:23;13.82;;;8.18;;
56519;SDS011;42420;53.586;10.052;2024-02-26T17:18:40;12.10;;;7.90;;
56519;SDS011;42420;53.586;10.052;2024-02-26T17:24:16;12.50;;;7.57;;
56519;SDS011;42420;53.586;10.052;2024-02-26T17:29:24;13.13;;;8.77;;
56519;SDS011;42420;53.586;10.052;2024-02-26T17:34:51;13.48;;;8.20;;
56519;SDS011;42420;53.586;10.052;2024-02-26T17:40:02;13.73;;;8.88;;
56519;SDS011;42420;53.586;10.052;2024-02-26T17:45:22;11.98;;;8.18;;
56519;SDS011;42420;53.586;10.052;2024-02-26T17:50:48;12.77;;;8.27;;
56519;SDS011;42420;53.586;10.052;2024-02-26T17:56:33;12.68;;;8.85;;
56519;SDS011;42420;53.586;10.052;2024-02-26T18:12:28;12.13;;;8.48;;
56519;SDS011;42420;53.586;10.052;2024-02-26T18:17:34;14.55;;;8.45;;
56519;SDS011;42420;53.586;10.052;2024-02-26T18:22:46;12.70;;;9.57;;
56519;SDS011;42420;53.586;10.052;2024-02-26T18:27:43;12.00;;;8.02;;
56519;SDS011;42420;53.586;10.052;2024-02-26T18:32:41;13.65;;;9.30;;
56519;SDS011;42420;53.586;10.052;2024-02-26T18:37:38;13.30;;;8.65;;
56519;SDS011;42420;53.586;10.052;2024-02-26T18:42:35;11.98;;;7.93;;
56519;SDS011;42420;53.586;10.052;2024-02-26T18:47:34;12.30;;;7.88;;
56519;SDS011;42420;53.586;10.052;2024-02-26T18:52:30;12.52;;;8.02;;
56519;SDS011;42420;53.586;10.052;2024-02-26T18:57:27;11.95;;;8.38;;
56519;SDS011;42420;53.586;10.052;2024-02-26T19:02:24;11.07;;;7.57;;
56519;SDS011;42420;53.586;10.052;2024-02-26T19:07:24;11.68;;;7.97;;
56519;SDS011;42420;53.586;10.052;2024-02-26T19:12:21;11.57;;;7.93;;
56519;SDS011;42420;53.586;10.052;2024-02-26T19:17:19;11.43;;;7.25;;
56519;SDS011;42420;53.586;10.052;2024-02-26T19:22:18;13.88;;;8.45;;
56519;SDS011;42420;53.586;10.052;2024-02-26T19:27:15;13.52;;;8.52;;
56519;SDS011;42420;53.586;10.052;2024-02-26T19:32:11;13.02;;;8.63;;
56519;SDS011;42420;53.586;10.052;2024-02-26T19:37:10;11.80;;;8.02;;
56519;SDS011;42420;53.586;10.052;2024-02-26T19:42:07;12.40;;;8.15;;
56519;SDS011;42420;53.586;10.052;2024-02-26T19:47:04;13.18;;;8.30;;
56519;SDS011;42420;53.586;10.052;2024-02-26T19:52:01;11.60;;;8.18;;
56519;SDS011;42420;53.586;10.052;2024-02-26T19:56:59;14.52;;;8.55;;
56519;SDS011;42420;53.586;10.052;2024-02-26T20:01:55;11.88;;;8.23;;
56519;SDS011;42420;53.586;10.052;2024-02-26T20:06:53;15.00;;;8.95;;
56519;SDS011;42420;53.586;10.052;2024-02-26T20:16:48;13.95;;;9.07;;
56519;SDS011;42420;53.586;10.052;2024-02-26T20:21:45;14.13;;;8.68;;
56519;SDS011;42420;53.586;10.052;2024-02-26T20:26:41;16.02;;;9.55;;
56519;SDS011;42420;53.586;10.052;2024-02-26T20:31:39;16.77;;;10.07;;
56519;SDS011;42420;53.586;10.052;2024-02-26T20:36:36;15.45;;;9.32;;
56519;SDS011;42420;53.586;10.052;2024-02-26T20:41:35;15.60;;;9.85;;
56519;SDS011;42420;53.586;10.052;2024-02-26T20:46:33;18.52;;;10.90;;
56519;SDS011;42420;53.586;10.052;2024-02-26T20:51:32;16.67;;;10.80;;
56519;SDS011;42420;53.586;10.052;2024-02-26T21:03:08;20.55;;;12.48;;
56519;SDS011;42420;53.586;10.052;2024-02-26T21:08:06;19.75;;;11.52;;
56519;SDS011;42420;53.586;10.052;2024-02-26T21:13:19;20.73;;;11.65;;
56519;SDS011;42420;53.586;10.052;2024-02-26T21:18:16;21.75;;;12.35;;
56519;SDS011;42420;53.586;10.052;2024-02-26T21:23:16;20.33;;;11.93;;
56519;SDS011;42420;53.586;10.052;2024-02-26T21:28:13;21.02;;;12.45;;
56519;SDS011;42420;53.586;10.052;2024-02-26T21:33:10;22.58;;;11.63;;
56519;SDS011;42420;53.586;10.052;2024-02-26T21:48:02;22.08;;;12.77;;
56519;SDS011;42420;53.586;10.052;2024-02-26T21:52:59;23.63;;;13.57;;
56519;SDS011;42420;53.586;10.052;2024-02-26T21:57:56;23.70;;;13.43;;
56519;SDS011;42420;53.586;10.052;2024-02-26T22:02:53;22.42;;;13.40;;
56519;SDS011;42420;53.586;10.052;2024-02-26T22:07:50;22.73;;;13.65;;
56519;SDS011;42420;53.586;10.052;2024-02-26T22:12:46;21.30;;;12.40;;
56519;SDS011;42420;53.586;10.052;2024-02-26T22:17:43;21.58;;;13.10;;
56519;SDS011;42420;53.586;10.052;2024-02-26T22:22:41;22.02;;;12.57;;
56519;SDS011;42420;53.586;10.052;2024-02-26T22:27:38;20.83;;;12.55;;
56519;SDS011;42420;53.586;10.052;2024-02-26T22:32:34;23.15;;;12.70;;
56519;SDS011;42420;53.586;10.052;2024-02-26T22:37:31;23.63;;;13.45;;
56519;SDS011;42420;53.586;10.052;2024-02-26T22:42:30;22.70;;;12.25;;
56519;SDS011;42420;53.586;10.052;2024-02-26T22:47:26;24.45;;;13.55;;
56519;SDS011;42420;53.586;10.052;2024-02-26T22:52:25;22.80;;;12.27;;
56519;SDS011;42420;53.586;10.052;2024-02-26T22:57:22;24.48;;;13.27;;
56519;SDS011;42420;53.586;10.052;2024-02-26T23:02:20;21.83;;;12.93;;
56519;SDS011;42420;53.586;10.052;2024-02-26T23:07:17;26.23;;;13.95;;
56519;SDS011;42420;53.586;10.052;2024-02-26T23:12:14;23.23;;;12.82;;
56519;SDS011;42420;53.586;10.052;2024-02-26T23:17:11;22.08;;;13.32;;
56519;SDS011;42420;53.586;10.052;2024-02-26T23:22:07;23.27;;;12.65;;
56519;SDS011;42420;53.586;10.052;2024-02-26T23:27:04;24.88;;;14.52;;
56519;SDS011;42420;53.586;10.052;2024-02-26T23:32:00;22.65;;;13.50;;
56519;SDS011;42420;53.586;10.052;2024-02-26T23:36:57;24.73;;;14.20;;
56519;SDS011;42420;53.586;10.052;2024-02-26T23:46:50;23.55;;;13.02;;
56519;SDS011;42420;53.586;10.052;2024-02-26T23:51:47;23.90;;;14.25;;
56519;SDS011;42420;53.586;10.052;2024-02-26T23:56:43;23.23;;;12.45;;
